Time;durP1;ratioP1;P1;durP2;ratioP2;P2;SDS_P1;SDS_P2;PMS_P1;PMS_P2;Temp;Humidity;BMP_temperature;BMP_pressure;BME280_temperature;BME280_humidity;BME280_pressure;Samples;Min_cycle;Max_cycle;Signal;HPM_P1;HPM_P2
2021/07/25 00:00:36;;;;;;;7.87;4.97;;;;;;;;;;4403402;32;20273;-54
2021/07/25 00:03:02;;;;;;;10.48;4.72;;;;;;;;;;4402093;32;20764;-54
2021/07/25 00:05:27;;;;;;;6.15;4.93;;;;;;;;;;4401953;32;20217;-54
2021/07/25 00:07:53;;;;;;;6.12;4.62;;;;;;;;;;4403357;32;20626;-54
2021/07/25 00:10:18;;;;;;;4.57;4.12;;;;;;;;;;4403356;32;20313;-54
2021/07/25 00:12:44;;;;;;;5.72;5.07;;;;;;;;;;4403364;32;20233;-54
2021/07/25 00:15:10;;;;;;;7.37;5.12;;;;;;;;;;4403033;32;20296;-54
2021/07/25 00:17:35;;;;;;;5.32;4.82;;;;;;;;;;4403049;32;20296;-55
2021/07/25 00:20:02;;;;;;;7.25;4.25;;;;;;;;;;4403364;32;20293;-55
2021/07/25 00:22:27;;;;;;;7.47;4.87;;;;;;;;;;4403191;32;20268;-55
2021/07/25 00:25:07;;;;;;;7.03;4.60;;;;;;;;;;4403229;32;20638;-54
2021/07/25 00:27:33;;;;;;;4.68;4.05;;;;;;;;;;4403250;32;20574;-55
2021/07/25 00:29:58;;;;;;;6.55;4.75;;;;;;;;;;4403199;32;20209;-54
2021/07/25 00:32:23;;;;;;;6.65;4.95;;;;;;;;;;4391970;32;20295;-54
2021/07/25 00:34:49;;;;;;;7.20;4.78;;;;;;;;;;4398038;32;20235;-54
2021/07/25 00:37:14;;;;;;;7.22;4.37;;;;;;;;;;4403260;32;20627;-54
2021/07/25 00:39:40;;;;;;;6.00;4.57;;;;;;;;;;4402864;32;20312;-56
2021/07/25 00:42:05;;;;;;;9.23;5.15;;;;;;;;;;4402406;32;20277;-54
2021/07/25 00:44:31;;;;;;;4.75;4.20;;;;;;;;;;4402764;32;20213;-54
2021/07/25 00:46:59;;;;;;;5.97;4.70;;;;;;;;;;4403269;32;20626;-53
2021/07/25 00:49:25;;;;;;;9.75;5.50;;;;;;;;;;4401827;32;20629;-54
2021/07/25 00:51:51;;;;;;;5.47;4.37;;;;;;;;;;4403192;32;20221;-55
2021/07/25 00:54:18;;;;;;;4.55;4.05;;;;;;;;;;4403086;32;20320;-55
2021/07/25 00:56:45;;;;;;;5.57;5.05;;;;;;;;;;4402800;32;20670;-55
2021/07/25 00:59:11;;;;;;;6.78;4.30;;;;;;;;;;4402900;32;20367;-54
2021/07/25 01:01:37;;;;;;;7.25;5.50;;;;;;;;;;4402955;32;20225;-54
2021/07/25 01:04:08;;;;;;;8.55;5.20;;;;;;;;;;4402963;32;20216;-53
2021/07/25 01:07:00;;;;;;;7.05;5.03;;;;;;;;;;4402881;32;20218;-55
2021/07/25 01:09:32;;;;;;;6.25;3.92;;;;;;;;;;4402854;32;20748;-54
2021/07/25 01:12:03;;;;;;;9.73;5.35;;;;;;;;;;4402447;32;20236;-53
2021/07/25 01:14:32;;;;;;;5.70;4.60;;;;;;;;;;4402992;32;20251;-54
2021/07/25 01:17:22;;;;;;;5.95;4.87;;;;;;;;;;4403050;32;20252;-54
2021/07/25 01:19:48;;;;;;;9.68;5.18;;;;;;;;;;4402823;32;20272;-53
2021/07/25 01:22:14;;;;;;;6.93;5.65;;;;;;;;;;4402861;32;20307;-55
2021/07/25 01:24:39;;;;;;;5.80;4.70;;;;;;;;;;4402862;32;20301;-54
2021/07/25 01:27:07;;;;;;;6.00;4.95;;;;;;;;;;4402760;32;20273;-54
2021/07/25 01:29:33;;;;;;;7.78;5.32;;;;;;;;;;4403733;32;20666;-53
2021/07/25 01:32:00;;;;;;;6.85;5.00;;;;;;;;;;4405269;32;20276;-54
2021/07/25 01:34:26;;;;;;;7.25;4.37;;;;;;;;;;4405289;32;20300;-54
2021/07/25 01:36:51;;;;;;;8.70;4.97;;;;;;;;;;4405523;32;20644;-55
2021/07/25 01:39:18;;;;;;;6.78;5.00;;;;;;;;;;4404345;32;20221;-54
2021/07/25 01:41:43;;;;;;;5.03;4.40;;;;;;;;;;4404212;32;20245;-53
2021/07/25 01:44:09;;;;;;;7.28;5.05;;;;;;;;;;4390752;32;20225;-54
2021/07/25 01:46:36;;;;;;;7.30;4.37;;;;;;;;;;4390190;32;20598;-54
2021/07/25 01:49:01;;;;;;;6.72;4.30;;;;;;;;;;4390109;32;20222;-54
2021/07/25 01:51:27;;;;;;;6.50;4.87;;;;;;;;;;4388891;32;20266;-54
2021/07/25 01:53:52;;;;;;;7.45;5.20;;;;;;;;;;4390158;32;20680;-55
2021/07/25 01:56:18;;;;;;;9.27;5.72;;;;;;;;;;4389745;32;20215;-54
2021/07/25 01:58:43;;;;;;;6.15;4.45;;;;;;;;;;4388724;32;20291;-54
2021/07/25 02:01:09;;;;;;;7.72;5.32;;;;;;;;;;4389967;32;20255;-55
2021/07/25 02:03:35;;;;;;;8.23;5.47;;;;;;;;;;4389818;32;20237;-55
2021/07/25 02:06:01;;;;;;;7.47;5.47;;;;;;;;;;4389860;32;20226;-54
2021/07/25 02:08:27;;;;;;;9.23;6.68;;;;;;;;;;4389832;32;20229;-54
2021/07/25 02:10:53;;;;;;;6.22;4.57;;;;;;;;;;4389411;32;20244;-54
2021/07/25 02:13:21;;;;;;;6.82;5.60;;;;;;;;;;4389772;32;20689;-54
2021/07/25 02:15:47;;;;;;;8.88;5.62;;;;;;;;;;4388372;32;20295;-54
2021/07/25 02:18:12;;;;;;;6.68;5.62;;;;;;;;;;4388229;32;20635;-54
2021/07/25 02:20:38;;;;;;;8.15;6.30;;;;;;;;;;4389721;32;20296;-55
2021/07/25 02:23:04;;;;;;;6.97;5.50;;;;;;;;;;4388279;32;20308;-54
2021/07/25 02:25:30;;;;;;;9.68;7.62;;;;;;;;;;4388495;32;20323;-56
2021/07/25 02:27:55;;;;;;;13.23;11.80;;;;;;;;;;4395610;32;20284;-54
2021/07/25 02:30:21;;;;;;;12.73;8.68;;;;;;;;;;4404933;32;20237;-54
2021/07/25 02:32:46;;;;;;;9.27;7.60;;;;;;;;;;4403377;32;20527;-54
2021/07/25 02:35:12;;;;;;;13.10;8.20;;;;;;;;;;4404729;32;20209;-54
2021/07/25 02:37:37;;;;;;;10.73;6.93;;;;;;;;;;4404555;32;20557;-54
2021/07/25 02:40:04;;;;;;;9.15;6.55;;;;;;;;;;4403793;32;20694;-54
2021/07/25 02:42:29;;;;;;;9.20;5.85;;;;;;;;;;4403810;32;20235;-54
2021/07/25 02:44:55;;;;;;;9.15;6.72;;;;;;;;;;4404761;32;20218;-53
2021/07/25 02:47:20;;;;;;;10.27;6.03;;;;;;;;;;4403304;32;20745;-53
2021/07/25 02:49:46;;;;;;;9.35;5.15;;;;;;;;;;4404392;32;20716;-54
2021/07/25 02:52:11;;;;;;;8.73;5.50;;;;;;;;;;4403328;32;20330;-54
2021/07/25 02:54:37;;;;;;;7.82;5.70;;;;;;;;;;4404417;32;20254;-54
2021/07/25 02:57:03;;;;;;;8.43;6.20;;;;;;;;;;4403032;32;20338;-54
2021/07/25 02:59:30;;;;;;;8.23;6.28;;;;;;;;;;4402942;32;20267;-54
2021/07/25 03:01:55;;;;;;;11.75;5.70;;;;;;;;;;4403981;32;20565;-54
2021/07/25 03:04:21;;;;;;;8.15;6.28;;;;;;;;;;4403912;32;20214;-53
2021/07/25 03:06:46;;;;;;;10.95;6.65;;;;;;;;;;4404065;32;20567;-53
2021/07/25 03:09:12;;;;;;;8.43;6.25;;;;;;;;;;4404017;32;20240;-54
2021/07/25 03:11:39;;;;;;;15.07;5.68;;;;;;;;;;4403669;32;20310;-54
2021/07/25 03:14:05;;;;;;;7.45;5.75;;;;;;;;;;4404008;32;20229;-54
2021/07/25 03:16:31;;;;;;;7.57;5.22;;;;;;;;;;4402604;32;20230;-53
2021/07/25 03:18:56;;;;;;;7.15;5.53;;;;;;;;;;4404027;32;20672;-55
2021/07/25 03:21:22;;;;;;;9.30;5.45;;;;;;;;;;4402907;32;20218;-55
2021/07/25 03:23:48;;;;;;;7.72;5.60;;;;;;;;;;4403748;32;20277;-54
2021/07/25 03:26:13;;;;;;;7.07;4.70;;;;;;;;;;4404139;32;20241;-54
2021/07/25 03:28:38;;;;;;;6.90;5.55;;;;;;;;;;4403741;32;20260;-54
2021/07/25 03:31:04;;;;;;;8.63;5.55;;;;;;;;;;4401353;32;20202;-55
2021/07/25 03:33:29;;;;;;;10.98;5.57;;;;;;;;;;4387461;32;20408;-54
2021/07/25 03:35:55;;;;;;;9.15;5.72;;;;;;;;;;4387745;32;20650;-54
2021/07/25 03:38:20;;;;;;;9.25;5.82;;;;;;;;;;4396707;32;20657;-54
2021/07/25 03:40:46;;;;;;;7.57;5.37;;;;;;;;;;4402124;32;20372;-54
2021/07/25 03:43:13;;;;;;;6.37;5.10;;;;;;;;;;4394559;32;20305;-55
2021/07/25 03:45:47;;;;;;;7.05;5.12;;;;;;;;;;4388300;32;20237;-54
2021/07/25 03:48:14;;;;;;;9.93;5.15;;;;;;;;;;4388302;32;20221;-54
2021/07/25 03:50:40;;;;;;;6.37;4.75;;;;;;;;;;4388409;32;20776;-54
2021/07/25 03:53:07;;;;;;;8.50;5.28;;;;;;;;;;4387774;32;20236;-54
2021/07/25 03:55:34;;;;;;;10.23;5.57;;;;;;;;;;4388189;32;20248;-54
2021/07/25 03:57:59;;;;;;;8.23;5.97;;;;;;;;;;4387143;32;20230;-54
2021/07/25 04:00:25;;;;;;;10.45;6.05;;;;;;;;;;4387255;32;20241;-54
2021/07/25 04:02:50;;;;;;;18.52;5.87;;;;;;;;;;4387094;32;20293;-54
2021/07/25 04:05:16;;;;;;;6.85;5.45;;;;;;;;;;4388379;32;20224;-54
2021/07/25 04:07:41;;;;;;;8.55;5.87;;;;;;;;;;4388251;32;20236;-54
2021/07/25 04:10:07;;;;;;;9.10;5.32;;;;;;;;;;4387946;32;20290;-54
2021/07/25 04:12:33;;;;;;;7.87;6.28;;;;;;;;;;4388298;32;20271;-54
2021/07/25 04:15:00;;;;;;;9.05;5.32;;;;;;;;;;4388458;32;20230;-54
2021/07/25 04:17:26;;;;;;;8.68;5.47;;;;;;;;;;4387858;32;20230;-54
2021/07/25 04:19:51;;;;;;;9.40;6.15;;;;;;;;;;4390800;32;20224;-54
2021/07/25 04:22:17;;;;;;;8.98;5.78;;;;;;;;;;4403081;32;20599;-53
2021/07/25 04:24:42;;;;;;;10.38;5.75;;;;;;;;;;4403093;32;20218;-54
2021/07/25 04:27:08;;;;;;;15.18;6.68;;;;;;;;;;4402864;32;20269;-55
2021/07/25 04:29:34;;;;;;;6.85;5.90;;;;;;;;;;4401807;32;20684;-55
2021/07/25 04:31:59;;;;;;;10.23;6.25;;;;;;;;;;4394556;32;20471;-54
2021/07/25 04:34:25;;;;;;;9.88;6.05;;;;;;;;;;4387703;32;20473;-54
2021/07/25 04:36:52;;;;;;;10.27;6.20;;;;;;;;;;4388354;32;20703;-56
2021/07/25 04:39:17;;;;;;;7.40;5.45;;;;;;;;;;4403190;32;20261;-54
2021/07/25 04:41:49;;;;;;;7.10;5.40;;;;;;;;;;4402872;32;20311;-56
2021/07/25 04:44:32;;;;;;;10.73;6.15;;;;;;;;;;4401457;32;20248;-53
2021/07/25 04:47:02;;;;;;;11.23;6.72;;;;;;;;;;4403195;32;20279;-54
2021/07/25 04:50:02;;;;;;;9.48;6.22;;;;;;;;;;4403221;32;20715;-54
2021/07/25 04:52:41;;;;;;;9.55;6.32;;;;;;;;;;4402031;32;20241;-54
2021/07/25 04:55:09;;;;;;;6.00;5.37;;;;;;;;;;4402828;32;20240;-54
2021/07/25 04:57:40;;;;;;;8.48;6.07;;;;;;;;;;4403059;32;20209;-54
2021/07/25 05:00:06;;;;;;;11.65;5.37;;;;;;;;;;4401838;32;20293;-54
2021/07/25 05:02:34;;;;;;;12.43;5.93;;;;;;;;;;4401598;32;20304;-55
2021/07/25 05:05:01;;;;;;;10.07;5.25;;;;;;;;;;4402894;32;20574;-54
2021/07/25 05:07:32;;;;;;;7.12;5.10;;;;;;;;;;4402906;32;20201;-54
2021/07/25 05:09:57;;;;;;;6.32;5.62;;;;;;;;;;4402449;32;20262;-54
2021/07/25 05:12:28;;;;;;;6.65;5.47;;;;;;;;;;4402632;32;20749;-54
2021/07/25 05:15:03;;;;;;;10.23;5.75;;;;;;;;;;4401439;32;20287;-54
2021/07/25 05:17:42;;;;;;;9.82;5.60;;;;;;;;;;4402205;32;20722;-54
2021/07/25 05:20:15;;;;;;;7.90;5.28;;;;;;;;;;4402306;32;20279;-53
2021/07/25 05:22:43;;;;;;;12.43;5.97;;;;;;;;;;4402508;32;20346;-53
2021/07/25 05:25:09;;;;;;;7.43;5.75;;;;;;;;;;4402236;32;20308;-54
2021/07/25 05:27:44;;;;;;;13.80;4.97;;;;;;;;;;4400590;32;20241;-54
2021/07/25 05:30:11;;;;;;;12.05;6.95;;;;;;;;;;4399129;32;20727;-53
2021/07/25 05:32:37;;;;;;;11.70;5.93;;;;;;;;;;4400538;32;20221;-53
2021/07/25 05:35:03;;;;;;;10.32;5.85;;;;;;;;;;4400411;32;20544;-54
2021/07/25 05:37:28;;;;;;;9.23;5.50;;;;;;;;;;4400510;32;20231;-54
2021/07/25 05:39:54;;;;;;;13.30;6.57;;;;;;;;;;4399186;32;20265;-53
2021/07/25 05:42:20;;;;;;;14.70;6.15;;;;;;;;;;4397256;32;20321;-54
2021/07/25 05:44:46;;;;;;;7.85;6.20;;;;;;;;;;4387461;32;20214;-55
2021/07/25 05:47:11;;;;;;;10.27;6.35;;;;;;;;;;4387302;32;20190;-54
2021/07/25 05:49:37;;;;;;;7.85;5.72;;;;;;;;;;4385869;32;20233;-54
2021/07/25 05:52:02;;;;;;;7.05;5.70;;;;;;;;;;4387295;32;20194;-54
2021/07/25 05:54:28;;;;;;;6.57;5.07;;;;;;;;;;4387086;32;20218;-54
2021/07/25 05:56:54;;;;;;;18.30;6.72;;;;;;;;;;4386914;32;20210;-54
2021/07/25 05:59:19;;;;;;;8.98;5.72;;;;;;;;;;4387128;32;20260;-54
2021/07/25 06:01:45;;;;;;;7.75;6.07;;;;;;;;;;4387384;32;20702;-54
2021/07/25 06:04:11;;;;;;;7.70;5.82;;;;;;;;;;4386233;32;20284;-55
2021/07/25 06:06:37;;;;;;;6.85;5.50;;;;;;;;;;4387334;32;20277;-54
2021/07/25 06:09:03;;;;;;;6.45;4.97;;;;;;;;;;4386853;32;20248;-53
2021/07/25 06:11:30;;;;;;;9.52;6.00;;;;;;;;;;4386759;32;20248;-54
2021/07/25 06:13:55;;;;;;;8.95;5.45;;;;;;;;;;4399449;32;20242;-53
2021/07/25 06:16:21;;;;;;;7.72;5.85;;;;;;;;;;4404007;32;20264;-53
2021/07/25 06:18:48;;;;;;;4.90;4.43;;;;;;;;;;4404551;32;20280;-53
2021/07/25 06:21:15;;;;;;;7.43;5.70;;;;;;;;;;4403447;32;20257;-55
2021/07/25 06:23:40;;;;;;;7.93;5.65;;;;;;;;;;4403374;32;20319;-55
2021/07/25 06:26:06;;;;;;;7.20;5.10;;;;;;;;;;4404419;32;20677;-55
2021/07/25 06:28:31;;;;;;;8.10;5.72;;;;;;;;;;4404452;32;20725;-55
2021/07/25 06:30:57;;;;;;;6.25;4.55;;;;;;;;;;4404812;32;20364;-55
2021/07/25 06:33:22;;;;;;;12.57;6.32;;;;;;;;;;4404601;32;20327;-53
2021/07/25 06:35:47;;;;;;;8.85;5.10;;;;;;;;;;4404708;32;20704;-53
2021/07/25 06:38:15;;;;;;;8.55;6.15;;;;;;;;;;4404264;32;20290;-55
2021/07/25 06:40:45;;;;;;;10.43;6.22;;;;;;;;;;4404338;32;20917;-54
2021/07/25 06:43:11;;;;;;;6.30;5.05;;;;;;;;;;4403329;32;20240;-55
2021/07/25 06:45:37;;;;;;;8.30;5.70;;;;;;;;;;4404400;32;20337;-54
2021/07/25 06:48:03;;;;;;;9.68;5.85;;;;;;;;;;4404532;32;20774;-54
2021/07/25 06:50:31;;;;;;;9.38;6.20;;;;;;;;;;4404697;32;20230;-55
2021/07/25 06:52:57;;;;;;;8.38;5.70;;;;;;;;;;4404613;32;20202;-54
2021/07/25 06:55:27;;;;;;;7.22;5.87;;;;;;;;;;4404784;32;20268;-56
2021/07/25 06:57:53;;;;;;;7.78;6.35;;;;;;;;;;4404864;32;20205;-55
2021/07/25 07:00:19;;;;;;;8.27;5.75;;;;;;;;;;4403449;32;20315;-54
2021/07/25 07:02:50;;;;;;;7.50;5.28;;;;;;;;;;4403067;32;20233;-55
2021/07/25 07:05:23;;;;;;;6.95;5.47;;;;;;;;;;4404450;32;20589;-54
2021/07/25 07:07:51;;;;;;;9.55;6.22;;;;;;;;;;4404686;32;20713;-55
2021/07/25 07:10:18;;;;;;;6.65;5.28;;;;;;;;;;4403823;32;20352;-55
2021/07/25 07:12:45;;;;;;;7.12;5.62;;;;;;;;;;4404528;32;20198;-54
2021/07/25 07:15:12;;;;;;;8.30;6.03;;;;;;;;;;4403149;32;20611;-54
2021/07/25 07:17:38;;;;;;;7.32;5.47;;;;;;;;;;4404065;32;20201;-54
2021/07/25 07:20:09;;;;;;;10.15;6.37;;;;;;;;;;4404292;32;20221;-54
2021/07/25 07:22:35;;;;;;;7.20;5.40;;;;;;;;;;4402867;32;20257;-54
2021/07/25 07:25:02;;;;;;;9.45;6.35;;;;;;;;;;4404174;32;20846;-54
2021/07/25 07:27:28;;;;;;;9.68;6.82;;;;;;;;;;4404222;32;20645;-55
2021/07/25 07:29:54;;;;;;;7.32;6.30;;;;;;;;;;4404317;32;20214;-55
2021/07/25 07:32:20;;;;;;;7.97;5.60;;;;;;;;;;4404515;32;20342;-55
2021/07/25 07:34:46;;;;;;;10.05;5.55;;;;;;;;;;4404393;32;20300;-55
2021/07/25 07:37:11;;;;;;;7.45;5.45;;;;;;;;;;4404776;32;20284;-54
2021/07/25 07:39:41;;;;;;;10.77;6.12;;;;;;;;;;4404454;32;20210;-54
2021/07/25 07:42:08;;;;;;;7.85;5.65;;;;;;;;;;4401361;32;20257;-55
2021/07/25 07:44:34;;;;;;;12.13;6.03;;;;;;;;;;4389220;32;20275;-54
2021/07/25 07:47:00;;;;;;;11.68;6.20;;;;;;;;;;4388699;32;20288;-54
2021/07/25 07:49:25;;;;;;;8.63;5.93;;;;;;;;;;4389325;32;20616;-56
2021/07/25 07:51:51;;;;;;;7.65;6.30;;;;;;;;;;4388800;32;20269;-55
2021/07/25 07:54:17;;;;;;;7.68;5.72;;;;;;;;;;4388713;32;20278;-55
2021/07/25 07:56:42;;;;;;;14.15;6.25;;;;;;;;;;4388972;32;20417;-55
2021/07/25 07:59:08;;;;;;;9.30;4.90;;;;;;;;;;4389128;32;20240;-55
2021/07/25 08:01:33;;;;;;;12.90;6.05;;;;;;;;;;4387964;32;20320;-55
2021/07/25 08:03:59;;;;;;;8.35;5.85;;;;;;;;;;4388081;32;20221;-55
2021/07/25 08:06:24;;;;;;;18.80;6.20;;;;;;;;;;4398967;32;20304;-54
2021/07/25 08:08:50;;;;;;;8.05;5.07;;;;;;;;;;4403123;32;20300;-54
2021/07/25 08:11:15;;;;;;;8.30;5.68;;;;;;;;;;4403443;32;20213;-55
2021/07/25 08:13:43;;;;;;;9.65;5.40;;;;;;;;;;4403859;32;20255;-55
2021/07/25 08:16:09;;;;;;;8.80;5.80;;;;;;;;;;4402711;32;20205;-54
2021/07/25 08:18:34;;;;;;;9.75;6.75;;;;;;;;;;4404037;32;20240;-55
2021/07/25 08:21:00;;;;;;;6.53;5.32;;;;;;;;;;4403958;32;20292;-54
2021/07/25 08:23:26;;;;;;;8.98;5.37;;;;;;;;;;4402937;32;20233;-55
2021/07/25 08:25:51;;;;;;;8.38;5.15;;;;;;;;;;4403249;32;20252;-55
2021/07/25 08:28:17;;;;;;;10.35;6.12;;;;;;;;;;4404129;32;20217;-55
2021/07/25 08:30:42;;;;;;;10.98;6.28;;;;;;;;;;4403861;32;20269;-55
2021/07/25 08:33:07;;;;;;;11.52;9.48;;;;;;;;;;4404011;32;20209;-55
2021/07/25 08:35:33;;;;;;;7.68;5.80;;;;;;;;;;4402602;32;20300;-55
2021/07/25 08:37:58;;;;;;;7.40;5.47;;;;;;;;;;4401294;32;20858;-55
2021/07/25 08:40:25;;;;;;;7.50;4.55;;;;;;;;;;4403345;32;20287;-56
2021/07/25 08:43:11;;;;;;;5.72;4.37;;;;;;;;;;4402689;32;20308;-55
2021/07/25 08:45:40;;;;;;;7.78;5.40;;;;;;;;;;4403935;32;20197;-55
2021/07/25 08:48:11;;;;;;;10.10;6.12;;;;;;;;;;4403465;32;20861;-54
2021/07/25 08:50:42;;;;;;;6.07;4.80;;;;;;;;;;4403442;32;20202;-54
2021/07/25 08:53:16;;;;;;;6.72;5.18;;;;;;;;;;4403130;32;20307;-54
2021/07/25 08:55:43;;;;;;;8.52;5.10;;;;;;;;;;4401766;32;20284;-54
2021/07/25 08:58:11;;;;;;;6.40;5.15;;;;;;;;;;4403461;32;20217;-54
2021/07/25 09:00:37;;;;;;;7.30;3.83;;;;;;;;;;4403067;32;20224;-54
2021/07/25 09:03:08;;;;;;;6.30;4.85;;;;;;;;;;4402357;32;20263;-54
2021/07/25 09:05:34;;;;;;;9.98;5.15;;;;;;;;;;4403162;32;20194;-55
2021/07/25 09:08:03;;;;;;;9.07;5.25;;;;;;;;;;4403038;32;20305;-55
2021/07/25 09:10:29;;;;;;;5.78;4.35;;;;;;;;;;4401537;32;20252;-55
2021/07/25 09:12:55;;;;;;;11.73;4.90;;;;;;;;;;4400998;32;20281;-54
2021/07/25 09:15:35;;;;;;;7.40;4.93;;;;;;;;;;4401143;32;20310;-55
2021/07/25 09:18:02;;;;;;;5.40;4.10;;;;;;;;;;4400844;32;20323;-54
2021/07/25 09:20:29;;;;;;;5.53;4.12;;;;;;;;;;4400722;32;20201;-55
2021/07/25 09:23:06;;;;;;;5.37;4.40;;;;;;;;;;4401056;32;20197;-54
2021/07/25 09:25:45;;;;;;;5.25;4.20;;;;;;;;;;4402495;32;20239;-54
2021/07/25 09:28:17;;;;;;;7.03;4.47;;;;;;;;;;4402900;32;20244;-55
2021/07/25 09:30:43;;;;;;;6.43;4.30;;;;;;;;;;4402880;32;20294;-55
2021/07/25 09:33:27;;;;;;;4.50;3.67;;;;;;;;;;4402463;32;20210;-55
2021/07/25 09:36:00;;;;;;;7.45;3.97;;;;;;;;;;4387522;32;20209;-55
2021/07/25 09:38:28;;;;;;;5.68;3.33;;;;;;;;;;4397761;32;20630;-56
2021/07/25 09:40:54;;;;;;;7.87;3.83;;;;;;;;;;4402770;32;20239;-55
2021/07/25 09:43:24;;;;;;;5.90;4.40;;;;;;;;;;4392246;32;20230;-54
2021/07/25 09:45:58;;;;;;;7.62;4.18;;;;;;;;;;4387938;32;20256;-54
2021/07/25 09:48:35;;;;;;;5.75;4.05;;;;;;;;;;4387892;32;20227;-53
2021/07/25 09:51:03;;;;;;;4.47;3.62;;;;;;;;;;4388109;32;20328;-55
2021/07/25 09:53:45;;;;;;;4.22;3.50;;;;;;;;;;4389137;32;20255;-55
2021/07/25 09:56:12;;;;;;;4.28;3.15;;;;;;;;;;4388251;32;20372;-55
2021/07/25 09:58:38;;;;;;;5.20;3.53;;;;;;;;;;4399047;32;20226;-55
2021/07/25 10:01:04;;;;;;;3.97;3.58;;;;;;;;;;4403239;32;20386;-57
2021/07/25 10:03:33;;;;;;;6.97;3.62;;;;;;;;;;4402463;32;20300;-54
2021/07/25 10:06:21;;;;;;;6.35;3.45;;;;;;;;;;4404954;32;20308;-54
2021/07/25 10:08:47;;;;;;;7.57;3.90;;;;;;;;;;4404962;32;20237;-55
2021/07/25 10:11:20;;;;;;;5.82;3.70;;;;;;;;;;4405772;32;20673;-55
2021/07/25 10:13:50;;;;;;;6.03;2.87;;;;;;;;;;4404914;32;20373;-56
2021/07/25 10:16:18;;;;;;;6.47;3.33;;;;;;;;;;4406091;32;20209;-55
2021/07/25 10:18:48;;;;;;;4.95;3.85;;;;;;;;;;4405801;32;20248;-55
2021/07/25 10:21:13;;;;;;;4.75;3.33;;;;;;;;;;4405793;32;20245;-55
2021/07/25 10:23:47;;;;;;;6.12;3.83;;;;;;;;;;4405812;32;20286;-55
2021/07/25 10:26:13;;;;;;;4.85;3.22;;;;;;;;;;4405608;32;20224;-54
2021/07/25 10:28:40;;;;;;;4.82;3.62;;;;;;;;;;4405838;32;20225;-54
2021/07/25 10:31:07;;;;;;;5.10;4.07;;;;;;;;;;4405752;32;20287;-54
2021/07/25 10:33:35;;;;;;;5.97;4.25;;;;;;;;;;4405684;32;20216;-54
2021/07/25 10:36:02;;;;;;;4.47;3.60;;;;;;;;;;4405556;32;20304;-55
2021/07/25 10:38:28;;;;;;;4.35;3.40;;;;;;;;;;4405661;32;20563;-55
2021/07/25 10:40:54;;;;;;;6.72;3.97;;;;;;;;;;4403962;32;20300;-56
2021/07/25 10:43:25;;;;;;;4.25;3.30;;;;;;;;;;4404799;32;20347;-55
2021/07/25 10:46:20;;;;;;;9.10;6.50;;;;;;;;;;4405527;32;20732;-56
2021/07/25 10:49:00;;;;;;;7.47;4.07;;;;;;;;;;4405403;32;20319;-56
2021/07/25 10:51:27;;;;;;;6.55;4.07;;;;;;;;;;4405748;32;20268;-55
2021/07/25 10:53:52;;;;;;;6.90;4.68;;;;;;;;;;4404739;32;20600;-54
2021/07/25 10:56:55;;;;;;;6.05;4.28;;;;;;;;;;4405567;32;20318;-54
2021/07/25 10:59:39;;;;;;;8.45;3.92;;;;;;;;;;4405594;32;20265;-56
2021/07/25 11:02:07;;;;;;;5.10;4.12;;;;;;;;;;4405074;32;20206;-55
2021/07/25 11:04:47;;;;;;;5.45;3.55;;;;;;;;;;4403875;32;20252;-54
2021/07/25 11:07:22;;;;;;;4.75;3.80;;;;;;;;;;4404727;32;20279;-55
2021/07/25 11:09:53;;;;;;;5.32;3.80;;;;;;;;;;4403144;32;20328;-54
2021/07/25 11:12:19;;;;;;;5.55;3.37;;;;;;;;;;4404736;32;20202;-54
2021/07/25 11:15:01;;;;;;;8.25;3.47;;;;;;;;;;4404466;32;20683;-54
2021/07/25 11:17:44;;;;;;;7.40;3.97;;;;;;;;;;4404788;32;20209;-56
2021/07/25 11:20:32;;;;;;;5.43;3.90;;;;;;;;;;4404608;32;20331;-55
2021/07/25 11:22:58;;;;;;;4.60;3.53;;;;;;;;;;4404138;32;20217;-55
2021/07/25 11:25:35;;;;;;;5.30;3.97;;;;;;;;;;4404831;32;20205;-56
2021/07/25 11:28:04;;;;;;;5.72;3.95;;;;;;;;;;4404068;32;20363;-55
2021/07/25 11:30:48;;;;;;;6.75;4.32;;;;;;;;;;4404769;32;20206;-56
2021/07/25 11:33:37;;;;;;;5.70;3.60;;;;;;;;;;4387977;32;20665;-55
2021/07/25 11:36:04;;;;;;;5.82;4.10;;;;;;;;;;4381980;32;20226;-55
2021/07/25 11:38:32;;;;;;;5.85;3.90;;;;;;;;;;4399154;32;20229;-55
2021/07/25 11:40:58;;;;;;;5.37;3.80;;;;;;;;;;4405288;32;20210;-56
2021/07/25 11:43:23;;;;;;;4.60;3.72;;;;;;;;;;4387821;32;20295;-55
2021/07/25 11:45:49;;;;;;;4.78;3.58;;;;;;;;;;4389599;32;20318;-55
2021/07/25 11:48:24;;;;;;;4.00;3.20;;;;;;;;;;4389303;32;20333;-55
2021/07/25 11:50:49;;;;;;;5.20;3.62;;;;;;;;;;4387630;32;20340;-54
2021/07/25 11:53:15;;;;;;;4.97;3.87;;;;;;;;;;4389128;32;20559;-54
2021/07/25 11:55:41;;;;;;;4.12;3.37;;;;;;;;;;4389337;32;20304;-55
2021/07/25 11:58:11;;;;;;;4.82;4.10;;;;;;;;;;4389075;32;20271;-55
2021/07/25 12:00:36;;;;;;;6.00;3.85;;;;;;;;;;4389168;32;20236;-55
2021/07/25 12:03:02;;;;;;;4.72;3.92;;;;;;;;;;4389242;32;20444;-54
2021/07/25 12:05:27;;;;;;;4.47;3.33;;;;;;;;;;4387778;32;20316;-54
2021/07/25 12:07:53;;;;;;;4.12;3.58;;;;;;;;;;4388425;32;20586;-54
2021/07/25 12:10:29;;;;;;;5.60;3.58;;;;;;;;;;4388859;32;20234;-54
2021/07/25 12:13:06;;;;;;;4.07;3.20;;;;;;;;;;4388353;32;20198;-55
2021/07/25 12:15:32;;;;;;;9.32;3.55;;;;;;;;;;4389221;32;20237;-55
2021/07/25 12:17:58;;;;;;;4.22;3.42;;;;;;;;;;4389023;32;20306;-55
2021/07/25 12:20:29;;;;;;;5.82;4.35;;;;;;;;;;4388865;32;20689;-57
2021/07/25 12:23:00;;;;;;;4.93;3.40;;;;;;;;;;4388346;32;20283;-56
2021/07/25 12:25:27;;;;;;;8.02;3.65;;;;;;;;;;4387595;32;20233;-57
2021/07/25 12:28:07;;;;;;;5.47;3.85;;;;;;;;;;4388421;32;20267;-56
2021/07/25 12:30:43;;;;;;;5.55;3.72;;;;;;;;;;4401307;32;20221;-57
2021/07/25 12:33:10;;;;;;;4.15;3.50;;;;;;;;;;4403354;32;20543;-57
2021/07/25 12:35:35;;;;;;;4.60;3.30;;;;;;;;;;4401965;32;20333;-58
2021/07/25 12:38:08;;;;;;;3.37;2.80;;;;;;;;;;4400503;32;20395;-57
2021/07/25 12:40:54;;;;;;;3.80;3.25;;;;;;;;;;4399981;32;20637;-57
2021/07/25 12:43:24;;;;;;;6.47;3.55;;;;;;;;;;4386996;32;20230;-58
2021/07/25 12:45:51;;;;;;;4.80;3.30;;;;;;;;;;4386579;32;20240;-57
2021/07/25 12:48:32;;;;;;;6.62;3.65;;;;;;;;;;4385149;32;20249;-57
2021/07/25 12:53:47;;;;;;;4.50;4.05;;;;;;;;;;4385839;32;20245;-57
2021/07/25 12:56:21;;;;;;;4.95;4.05;;;;;;;;;;4388484;32;20214;-57
2021/07/25 12:58:48;;;;;;;7.43;3.62;;;;;;;;;;4388342;32;20252;-57
2021/07/25 13:03:52;;;;;;;6.00;3.58;;;;;;;;;;4403542;32;20302;-57
2021/07/25 13:06:19;;;;;;;5.05;3.10;;;;;;;;;;4401226;32;20486;-58
2021/07/25 13:08:46;;;;;;;6.60;3.42;;;;;;;;;;4394779;32;20260;-57
2021/07/25 13:11:15;;;;;;;4.57;3.17;;;;;;;;;;4394098;32;20361;-57
2021/07/25 13:13:43;;;;;;;6.43;3.30;;;;;;;;;;4392881;32;20406;-57
2021/07/25 13:16:12;;;;;;;4.68;3.70;;;;;;;;;;4394892;32;20270;-58
2021/07/25 13:18:41;;;;;;;4.65;3.90;;;;;;;;;;4394072;32;20285;-58
2021/07/25 13:21:08;;;;;;;6.80;3.60;;;;;;;;;;4393086;32;20245;-58
2021/07/25 13:23:35;;;;;;;5.68;3.92;;;;;;;;;;4387928;32;20336;-57
2021/07/25 13:26:01;;;;;;;4.15;3.05;;;;;;;;;;4391244;32;20801;-58
2021/07/25 13:28:26;;;;;;;5.80;3.40;;;;;;;;;;4391361;32;20294;-58
2021/07/25 13:30:51;;;;;;;5.03;3.42;;;;;;;;;;4392157;32;20311;-60
2021/07/25 13:33:17;;;;;;;3.55;2.83;;;;;;;;;;4405017;32;20237;-58
2021/07/25 13:35:42;;;;;;;5.75;3.70;;;;;;;;;;4405362;32;20284;-57
2021/07/25 13:38:08;;;;;;;4.97;3.80;;;;;;;;;;4405397;32;20253;-58
2021/07/25 13:40:34;;;;;;;4.75;3.60;;;;;;;;;;4406106;32;20292;-58
2021/07/25 13:43:00;;;;;;;5.03;3.97;;;;;;;;;;4405524;32;20371;-57
2021/07/25 13:45:25;;;;;;;6.65;3.58;;;;;;;;;;4406848;32;20721;-58
2021/07/25 13:47:53;;;;;;;4.78;3.95;;;;;;;;;;4405660;32;20283;-57
2021/07/25 13:50:18;;;;;;;5.22;3.45;;;;;;;;;;4405805;32;20242;-58
2021/07/25 13:52:44;;;;;;;7.47;3.55;;;;;;;;;;4405809;32;20656;-57
2021/07/25 13:55:11;;;;;;;7.37;3.83;;;;;;;;;;4404733;32;20333;-58
2021/07/25 13:57:36;;;;;;;3.97;3.45;;;;;;;;;;4405695;32;20261;-58
2021/07/25 14:00:02;;;;;;;4.75;3.72;;;;;;;;;;4405751;32;20248;-57
2021/07/25 14:02:28;;;;;;;5.82;3.62;;;;;;;;;;4406131;32;20637;-58
2021/07/25 14:04:54;;;;;;;5.53;3.97;;;;;;;;;;4405516;32;20225;-58
2021/07/25 14:07:19;;;;;;;5.07;3.80;;;;;;;;;;4404053;32;20676;-58
2021/07/25 14:09:45;;;;;;;4.90;3.67;;;;;;;;;;4404280;32;20347;-57
2021/07/25 14:12:10;;;;;;;4.25;3.85;;;;;;;;;;4392964;32;20321;-57
2021/07/25 14:14:35;;;;;;;6.32;3.87;;;;;;;;;;4388559;32;20657;-58
2021/07/25 14:17:04;;;;;;;4.35;3.67;;;;;;;;;;4388359;32;20702;-58
2021/07/25 14:19:30;;;;;;;4.80;3.45;;;;;;;;;;4386941;32;20641;-58
2021/07/25 14:21:56;;;;;;;5.12;3.15;;;;;;;;;;4388435;32;20276;-58
2021/07/25 14:24:21;;;;;;;4.72;3.17;;;;;;;;;;4389842;32;20697;-58
2021/07/25 14:26:46;;;;;;;5.82;3.42;;;;;;;;;;4387299;32;20320;-58
2021/07/25 14:29:12;;;;;;;4.80;3.75;;;;;;;;;;4388801;32;20238;-58
2021/07/25 14:31:37;;;;;;;3.90;3.45;;;;;;;;;;4393398;32;20326;-57
2021/07/25 14:34:03;;;;;;;5.12;4.03;;;;;;;;;;4402711;32;20963;-58
2021/07/25 14:36:28;;;;;;;4.35;3.62;;;;;;;;;;4402426;32;21003;-58
2021/07/25 14:38:56;;;;;;;4.40;3.28;;;;;;;;;;4402993;32;20240;-58
2021/07/25 14:41:22;;;;;;;7.43;4.07;;;;;;;;;;4403008;32;20210;-58
2021/07/25 14:43:47;;;;;;;5.18;3.75;;;;;;;;;;4403466;32;20802;-57
2021/07/25 14:46:13;;;;;;;6.50;3.85;;;;;;;;;;4402218;32;20606;-57
2021/07/25 14:48:38;;;;;;;5.07;3.95;;;;;;;;;;4402489;32;20225;-57
2021/07/25 14:51:12;;;;;;;4.00;3.30;;;;;;;;;;4402688;32;20310;-57